sensor_id;sensor_type;location;lat;lon;timestamp;pressure;altitude;pressure_sealevel;temperature;humidity
5753;BME280;2901;42.140;24.760;2023-05-21T00:02:08;99206.63;;;17.46;100.00
5753;BME280;2901;42.140;24.760;2023-05-21T00:04:39;99196.63;;;17.57;100.00
5753;BME280;2901;42.140;24.760;2023-05-21T00:07:05;99198.41;;;17.57;100.00
5753;BME280;2901;42.140;24.760;2023-05-21T00:09:30;99190.53;;;17.57;100.00
5753;BME280;2901;42.140;24.760;2023-05-21T00:11:56;99185.22;;;17.58;100.00
5753;BME280;2901;42.140;24.760;2023-05-21T00:14:21;99191.28;;;17.60;100.00
5753;BME280;2901;42.140;24.760;2023-05-21T00:16:46;99184.44;;;17.56;100.00
5753;BME280;2901;42.140;24.760;2023-05-21T00:19:12;99183.34;;;17.62;100.00
5753;BME280;2901;42.140;24.760;2023-05-21T00:21:37;99172.81;;;17.63;100.00
5753;BME280;2901;42.140;24.760;2023-05-21T00:24:04;99172.13;;;17.58;100.00
5753;BME280;2901;42.140;24.760;2023-05-21T00:26:29;99172.88;;;17.62;100.00
5753;BME280;2901;42.140;24.760;2023-05-21T00:28:55;99177.06;;;17.66;100.00
5753;BME280;2901;42.140;24.760;2023-05-21T00:31:20;99174.41;;;17.68;100.00
5753;BME280;2901;42.140;24.760;2023-05-21T00:33:46;99160.50;;;17.66;100.00
5753;BME280;2901;42.140;24.760;2023-05-21T00:36:11;99165.56;;;17.70;100.00
5753;BME280;2901;42.140;24.760;2023-05-21T00:38:39;99156.97;;;17.67;100.00
5753;BME280;2901;42.140;24.760;2023-05-21T00:41:08;99154.38;;;17.67;100.00
5753;BME280;2901;42.140;24.760;2023-05-21T00:43:34;99158.88;;;17.63;100.00
5753;BME280;2901;42.140;24.760;2023-05-21T00:46:00;99164.38;;;17.57;100.00
5753;BME280;2901;42.140;24.760;2023-05-21T00:48:25;99164.41;;;17.55;100.00
5753;BME280;2901;42.140;24.760;2023-05-21T00:50:51;99155.00;;;17.50;100.00
5753;BME280;2901;42.140;24.760;2023-05-21T00:53:17;99153.38;;;17.47;100.00
5753;BME280;2901;42.140;24.760;2023-05-21T00:55:44;99151.91;;;17.40;100.00
5753;BME280;2901;42.140;24.760;2023-05-21T00:58:10;99147.16;;;17.28;100.00
5753;BME280;2901;42.140;24.760;2023-05-21T01:00:36;99152.66;;;17.22;100.00
5753;BME280;2901;42.140;24.760;2023-05-21T01:03:07;99142.09;;;17.24;100.00
5753;BME280;2901;42.140;24.760;2023-05-21T01:05:33;99148.03;;;17.29;100.00
5753;BME280;2901;42.140;24.760;2023-05-21T01:07:59;99143.88;;;17.23;100.00
5753;BME280;2901;42.140;24.760;2023-05-21T01:10:25;99152.72;;;17.19;100.00
5753;BME280;2901;42.140;24.760;2023-05-21T01:12:51;99144.22;;;17.14;100.00
5753;BME280;2901;42.140;24.760;2023-05-21T01:15:17;99151.41;;;17.09;100.00
5753;BME280;2901;42.140;24.760;2023-05-21T01:17:42;99142.28;;;16.96;100.00
5753;BME280;2901;42.140;24.760;2023-05-21T01:20:10;99143.72;;;17.04;100.00
5753;BME280;2901;42.140;24.760;2023-05-21T01:22:41;99157.72;;;17.03;100.00
5753;BME280;2901;42.140;24.760;2023-05-21T01:25:09;99152.56;;;17.02;100.00
5753;BME280;2901;42.140;24.760;2023-05-21T01:27:34;99151.63;;;17.03;100.00
5753;BME280;2901;42.140;24.760;2023-05-21T01:29:59;99146.47;;;17.01;100.00
5753;BME280;2901;42.140;24.760;2023-05-21T01:32:40;99144.63;;;17.03;100.00
5753;BME280;2901;42.140;24.760;2023-05-21T01:35:20;99144.72;;;17.02;100.00
5753;BME280;2901;42.140;24.760;2023-05-21T01:37:54;99142.38;;;16.94;100.00
5753;BME280;2901;42.140;24.760;2023-05-21T01:40:33;99140.63;;;16.95;100.00
5753;BME280;2901;42.140;24.760;2023-05-21T01:43:01;99138.00;;;16.95;100.00
5753;BME280;2901;42.140;24.760;2023-05-21T01:45:30;99135.38;;;16.95;100.00
5753;BME280;2901;42.140;24.760;2023-05-21T01:47:56;99143.00;;;17.01;100.00
5753;BME280;2901;42.140;24.760;2023-05-21T01:50:25;99146.38;;;17.03;100.00
5753;BME280;2901;42.140;24.760;2023-05-21T01:52:52;99143.00;;;17.01;100.00
5753;BME280;2901;42.140;24.760;2023-05-21T01:55:20;99135.03;;;17.04;100.00
5753;BME280;2901;42.140;24.760;2023-05-21T01:57:53;99134.25;;;17.02;100.00
5753;BME280;2901;42.140;24.760;2023-05-21T02:00:22;99128.28;;;16.98;100.00
5753;BME280;2901;42.140;24.760;2023-05-21T02:02:49;99128.03;;;17.04;100.00
5753;BME280;2901;42.140;24.760;2023-05-21T02:05:15;99121.81;;;17.07;100.00
5753;BME280;2901;42.140;24.760;2023-05-21T02:07:40;99121.09;;;17.03;100.00
5753;BME280;2901;42.140;24.760;2023-05-21T02:10:08;99125.41;;;17.04;100.00
5753;BME280;2901;42.140;24.760;2023-05-21T02:12:33;99123.72;;;17.03;100.00
5753;BME280;2901;42.140;24.760;2023-05-21T02:14:59;99122.06;;;17.01;100.00
5753;BME280;2901;42.140;24.760;2023-05-21T02:17:24;99122.06;;;17.01;100.00
5753;BME280;2901;42.140;24.760;2023-05-21T02:19:50;99112.59;;;16.98;100.00
5753;BME280;2901;42.140;24.760;2023-05-21T02:22:16;99121.44;;;16.94;100.00
5753;BME280;2901;42.140;24.760;2023-05-21T02:24:41;99117.72;;;17.00;100.00
5753;BME280;2901;42.140;24.760;2023-05-21T02:27:07;99113.44;;;16.99;100.00
5753;BME280;2901;42.140;24.760;2023-05-21T02:29:37;99118.72;;;16.97;100.00
5753;BME280;2901;42.140;24.760;2023-05-21T02:32:02;99124.97;;;16.93;100.00
5753;BME280;2901;42.140;24.760;2023-05-21T02:34:28;99121.38;;;16.96;100.00
5753;BME280;2901;42.140;24.760;2023-05-21T02:36:57;99122.31;;;16.95;100.00
5753;BME280;2901;42.140;24.760;2023-05-21T02:39:23;99115.81;;;17.05;100.00
5753;BME280;2901;42.140;24.760;2023-05-21T02:41:48;99117.56;;;17.04;100.00
5753;BME280;2901;42.140;24.760;2023-05-21T02:44:13;99115.00;;;17.03;100.00
5753;BME280;2901;42.140;24.760;2023-05-21T02:46:39;99115.94;;;17.02;100.00
5753;BME280;2901;42.140;24.760;2023-05-21T02:49:05;99120.34;;;17.00;100.00
5753;BME280;2901;42.140;24.760;2023-05-21T02:51:30;99115.19;;;16.98;100.00
5753;BME280;2901;42.140;24.760;2023-05-21T02:53:56;99115.00;;;17.03;100.00
5753;BME280;2901;42.140;24.760;2023-05-21T02:56:21;99114.06;;;17.05;100.00
5753;BME280;2901;42.140;24.760;2023-05-21T02:58:47;99118.84;;;17.16;100.00
5753;BME280;2901;42.140;24.760;2023-05-21T03:01:12;99117.78;;;17.22;100.00
5753;BME280;2901;42.140;24.760;2023-05-21T03:03:38;99119.53;;;17.21;100.00
5753;BME280;2901;42.140;24.760;2023-05-21T03:06:03;99121.13;;;17.25;100.00
5753;BME280;2901;42.140;24.760;2023-05-21T03:08:29;99120.19;;;17.26;100.00
5753;BME280;2901;42.140;24.760;2023-05-21T03:10:55;99112.34;;;17.26;100.00
5753;BME280;2901;42.140;24.760;2023-05-21T03:13:21;99119.28;;;17.27;100.00
5753;BME280;2901;42.140;24.760;2023-05-21T03:15:47;99119.16;;;17.30;100.00
5753;BME280;2901;42.140;24.760;2023-05-21T03:18:12;99119.63;;;17.40;100.00
5753;BME280;2901;42.140;24.760;2023-05-21T03:20:37;99121.16;;;17.45;100.00
5753;BME280;2901;42.140;24.760;2023-05-21T03:23:08;99120.00;;;17.52;100.00
5753;BME280;2901;42.140;24.760;2023-05-21T03:25:33;99122.00;;;17.46;100.00
5753;BME280;2901;42.140;24.760;2023-05-21T03:28:01;99129.13;;;17.42;100.00
5753;BME280;2901;42.140;24.760;2023-05-21T03:30:26;99118.00;;;17.37;100.00
5753;BME280;2901;42.140;24.760;2023-05-21T03:32:51;99133.97;;;17.31;100.00
5753;BME280;2901;42.140;24.760;2023-05-21T03:35:17;99133.16;;;17.29;100.00
5753;BME280;2901;42.140;24.760;2023-05-21T03:37:42;99128.16;;;17.23;100.00
5753;BME280;2901;42.140;24.760;2023-05-21T03:40:08;99120.44;;;17.20;100.00
5753;BME280;2901;42.140;24.760;2023-05-21T03:42:34;99121.34;;;17.19;100.00
5753;BME280;2901;42.140;24.760;2023-05-21T03:45:00;99125.06;;;17.13;100.00
5753;BME280;2901;42.140;24.760;2023-05-21T03:47:25;99130.38;;;17.12;100.00
5753;BME280;2901;42.140;24.760;2023-05-21T03:49:50;99134.75;;;17.11;100.00
5753;BME280;2901;42.140;24.760;2023-05-21T03:52:16;99132.16;;;17.10;100.00
5753;BME280;2901;42.140;24.760;2023-05-21T03:54:41;99129.78;;;17.04;100.00
5753;BME280;2901;42.140;24.760;2023-05-21T03:57:06;99125.41;;;17.04;100.00
5753;BME280;2901;42.140;24.760;2023-05-21T03:59:32;99124.44;;;17.07;100.00
5753;BME280;2901;42.140;24.760;2023-05-21T04:01:57;99114.66;;;17.12;100.00
5753;BME280;2901;42.140;24.760;2023-05-21T04:04:22;99118.69;;;17.21;100.00
5753;BME280;2901;42.140;24.760;2023-05-21T04:06:49;99123.78;;;17.24;100.00
5753;BME280;2901;42.140;24.760;2023-05-21T04:09:15;99115.03;;;17.25;100.00
5753;BME280;2901;42.140;24.760;2023-05-21T04:11:40;99125.97;;;17.34;100.00
5753;BME280;2901;42.140;24.760;2023-05-21T04:14:06;99120.63;;;17.37;100.00
5753;BME280;2901;42.140;24.760;2023-05-21T04:16:31;99118.13;;;17.34;100.00
5753;BME280;2901;42.140;24.760;2023-05-21T04:18:58;99127.31;;;17.23;100.00
5753;BME280;2901;42.140;24.760;2023-05-21T04:21:24;99114.00;;;17.29;100.00
5753;BME280;2901;42.140;24.760;2023-05-21T04:23:49;99113.75;;;17.35;100.00
5753;BME280;2901;42.140;24.760;2023-05-21T04:26:14;99117.75;;;17.43;100.00
5753;BME280;2901;42.140;24.760;2023-05-21T04:28:40;99120.13;;;17.49;100.00
5753;BME280;2901;42.140;24.760;2023-05-21T04:31:06;99119.03;;;17.55;100.00
5753;BME280;2901;42.140;24.760;2023-05-21T04:33:33;99113.63;;;17.59;100.00
5753;BME280;2901;42.140;24.760;2023-05-21T04:36:00;99102.00;;;17.67;99.42
5753;BME280;2901;42.140;24.760;2023-05-21T04:38:26;99121.47;;;17.81;99.30
5753;BME280;2901;42.140;24.760;2023-05-21T04:40:52;99112.50;;;17.87;99.36
5753;BME280;2901;42.140;24.760;2023-05-21T04:43:18;99114.72;;;17.96;98.63
5753;BME280;2901;42.140;24.760;2023-05-21T04:45:50;99112.94;;;17.96;97.58
5753;BME280;2901;42.140;24.760;2023-05-21T04:48:15;99117.16;;;18.00;97.69
5753;BME280;2901;42.140;24.760;2023-05-21T04:50:42;99118.84;;;18.01;97.42
5753;BME280;2901;42.140;24.760;2023-05-21T04:53:07;99115.72;;;17.93;97.64
5753;BME280;2901;42.140;24.760;2023-05-21T04:55:33;99116.44;;;17.97;97.60
5753;BME280;2901;42.140;24.760;2023-05-21T04:58:04;99123.38;;;17.98;97.25
5753;BME280;2901;42.140;24.760;2023-05-21T05:00:29;99119.19;;;17.94;97.38
5753;BME280;2901;42.140;24.760;2023-05-21T05:02:54;99116.81;;;17.88;97.81
5753;BME280;2901;42.140;24.760;2023-05-21T05:05:20;99116.09;;;17.84;97.38
5753;BME280;2901;42.140;24.760;2023-05-21T05:07:45;99119.59;;;17.85;97.41
5753;BME280;2901;42.140;24.760;2023-05-21T05:10:10;99122.13;;;17.86;96.86
5753;BME280;2901;42.140;24.760;2023-05-21T05:12:36;99131.69;;;17.87;97.10
5753;BME280;2901;42.140;24.760;2023-05-21T05:15:01;99130.84;;;17.87;96.72
5753;BME280;2901;42.140;24.760;2023-05-21T05:17:27;99131.56;;;17.90;97.00
5753;BME280;2901;42.140;24.760;2023-05-21T05:19:52;99129.97;;;17.86;96.97
5753;BME280;2901;42.140;24.760;2023-05-21T05:22:17;99131.59;;;17.89;96.93
5753;BME280;2901;42.140;24.760;2023-05-21T05:24:43;99133.28;;;17.91;98.03
5753;BME280;2901;42.140;24.760;2023-05-21T05:27:08;99133.06;;;17.96;97.23
5753;BME280;2901;42.140;24.760;2023-05-21T05:29:33;99139.69;;;18.04;97.46
5753;BME280;2901;42.140;24.760;2023-05-21T05:31:59;99139.47;;;18.09;96.90
5753;BME280;2901;42.140;24.760;2023-05-21T05:34:24;99133.97;;;18.15;96.40
5753;BME280;2901;42.140;24.760;2023-05-21T05:36:49;99143.38;;;18.21;95.92
5753;BME280;2901;42.140;24.760;2023-05-21T05:39:15;99140.94;;;18.16;95.53
5753;BME280;2901;42.140;24.760;2023-05-21T05:41:40;99149.25;;;18.26;95.90
5753;BME280;2901;42.140;24.760;2023-05-21T05:44:06;99156.78;;;18.33;95.49
5753;BME280;2901;42.140;24.760;2023-05-21T05:46:31;99149.56;;;18.38;95.66
5753;BME280;2901;42.140;24.760;2023-05-21T05:48:58;99145.34;;;18.34;95.49
5753;BME280;2901;42.140;24.760;2023-05-21T05:51:23;99144.31;;;18.38;96.22
5753;BME280;2901;42.140;24.760;2023-05-21T05:53:48;99159.91;;;18.41;96.69
5753;BME280;2901;42.140;24.760;2023-05-21T05:56:14;99160.03;;;18.18;98.13
5753;BME280;2901;42.140;24.760;2023-05-21T05:58:41;99164.34;;;18.21;99.04
5753;BME280;2901;42.140;24.760;2023-05-21T06:01:06;99164.69;;;18.11;99.44
5753;BME280;2901;42.140;24.760;2023-05-21T06:03:32;99156.91;;;18.10;97.89
5753;BME280;2901;42.140;24.760;2023-05-21T06:05:57;99158.63;;;18.11;98.80
5753;BME280;2901;42.140;24.760;2023-05-21T06:08:22;99167.13;;;18.16;98.97
5753;BME280;2901;42.140;24.760;2023-05-21T06:10:48;99160.78;;;18.22;98.15
5753;BME280;2901;42.140;24.760;2023-05-21T06:13:14;99163.97;;;18.28;97.49
5753;BME280;2901;42.140;24.760;2023-05-21T06:15:39;99165.81;;;18.26;97.30
5753;BME280;2901;42.140;24.760;2023-05-21T06:18:07;99160.84;;;18.20;96.66
5753;BME280;2901;42.140;24.760;2023-05-21T06:20:32;99151.47;;;18.14;97.46
5753;BME280;2901;42.140;24.760;2023-05-21T06:22:58;99156.38;;;18.22;98.01
5753;BME280;2901;42.140;24.760;2023-05-21T06:25:23;99147.41;;;18.28;97.80
5753;BME280;2901;42.140;24.760;2023-05-21T06:27:50;99144.59;;;18.32;97.79
5753;BME280;2901;42.140;24.760;2023-05-21T06:30:15;99145.13;;;18.40;97.32
5753;BME280;2901;42.140;24.760;2023-05-21T06:32:41;99145.47;;;18.53;96.72
5753;BME280;2901;42.140;24.760;2023-05-21T06:35:07;99142.41;;;18.62;95.79
5753;BME280;2901;42.140;24.760;2023-05-21T06:37:33;99149.66;;;18.76;95.34
5753;BME280;2901;42.140;24.760;2023-05-21T06:39:58;99148.00;;;18.93;93.90
5753;BME280;2901;42.140;24.760;2023-05-21T06:42:23;99157.63;;;19.11;93.18
5753;BME280;2901;42.140;24.760;2023-05-21T06:44:49;99155.97;;;19.28;91.52
5753;BME280;2901;42.140;24.760;2023-05-21T06:47:14;99156.34;;;19.39;90.54
5753;BME280;2901;42.140;24.760;2023-05-21T06:49:39;99161.47;;;19.42;90.95
5753;BME280;2901;42.140;24.760;2023-05-21T06:52:05;99159.25;;;19.51;91.00
5753;BME280;2901;42.140;24.760;2023-05-21T06:54:30;99159.66;;;19.61;90.95
5753;BME280;2901;42.140;24.760;2023-05-21T06:56:57;99150.47;;;19.69;89.96
5753;BME280;2901;42.140;24.760;2023-05-21T06:59:22;99156.75;;;19.84;90.18
5753;BME280;2901;42.140;24.760;2023-05-21T07:01:47;99168.69;;;19.91;90.56
5753;BME280;2901;42.140;24.760;2023-05-21T07:04:13;99152.66;;;19.96;92.07
5753;BME280;2901;42.140;24.760;2023-05-21T07:06:38;99148.41;;;19.93;95.75
5753;BME280;2901;42.140;24.760;2023-05-21T07:09:04;99157.22;;;19.92;97.50
5753;BME280;2901;42.140;24.760;2023-05-21T07:11:32;99154.47;;;19.95;98.08
5753;BME280;2901;42.140;24.760;2023-05-21T07:13:58;99156.53;;;20.06;97.96
5753;BME280;2901;42.140;24.760;2023-05-21T07:16:28;99149.81;;;20.00;96.37
5753;BME280;2901;42.140;24.760;2023-05-21T07:18:53;99146.31;;;20.00;96.76
5753;BME280;2901;42.140;24.760;2023-05-21T07:21:18;99141.22;;;19.97;96.61
5753;BME280;2901;42.140;24.760;2023-05-21T07:23:44;99136.97;;;20.11;96.39
5753;BME280;2901;42.140;24.760;2023-05-21T07:26:10;99144.31;;;20.22;96.80
5753;BME280;2901;42.140;24.760;2023-05-21T07:28:35;99139.31;;;20.35;95.40
5753;BME280;2901;42.140;24.760;2023-05-21T07:31:00;99150.03;;;20.47;93.41
5753;BME280;2901;42.140;24.760;2023-05-21T07:33:26;99150.78;;;20.66;93.42
5753;BME280;2901;42.140;24.760;2023-05-21T07:35:52;99145.88;;;20.76;90.46
5753;BME280;2901;42.140;24.760;2023-05-21T07:38:17;99147.59;;;20.93;88.95
5753;BME280;2901;42.140;24.760;2023-05-21T07:40:43;99144.47;;;21.02;85.02
5753;BME280;2901;42.140;24.760;2023-05-21T07:43:08;99145.00;;;21.24;84.76
5753;BME280;2901;42.140;24.760;2023-05-21T07:45:33;99152.56;;;21.46;82.37
5753;BME280;2901;42.140;24.760;2023-05-21T07:47:59;99160.81;;;21.55;81.88
5753;BME280;2901;42.140;24.760;2023-05-21T07:50:25;99155.34;;;21.74;81.83
5753;BME280;2901;42.140;24.760;2023-05-21T07:52:50;99159.06;;;22.01;79.75
5753;BME280;2901;42.140;24.760;2023-05-21T07:55:15;99157.44;;;22.29;78.35
5753;BME280;2901;42.140;24.760;2023-05-21T07:57:41;99156.41;;;22.59;76.58
5753;BME280;2901;42.140;24.760;2023-05-21T08:00:07;99164.56;;;22.99;74.36
5753;BME280;2901;42.140;24.760;2023-05-21T08:02:38;99160.03;;;23.15;72.07
5753;BME280;2901;42.140;24.760;2023-05-21T08:05:04;99149.81;;;23.23;70.62
5753;BME280;2901;42.140;24.760;2023-05-21T08:07:29;99153.28;;;23.38;69.23
5753;BME280;2901;42.140;24.760;2023-05-21T08:09:56;99146.19;;;23.52;66.73
5753;BME280;2901;42.140;24.760;2023-05-21T08:12:22;99150.59;;;23.78;66.13
5753;BME280;2901;42.140;24.760;2023-05-21T08:14:47;99157.56;;;23.94;63.46
5753;BME280;2901;42.140;24.760;2023-05-21T08:17:13;99161.22;;;24.18;62.83
5753;BME280;2901;42.140;24.760;2023-05-21T08:19:38;99156.47;;;24.48;60.92
5753;BME280;2901;42.140;24.760;2023-05-21T08:22:04;99159.47;;;24.56;58.51
5753;BME280;2901;42.140;24.760;2023-05-21T08:24:32;99157.66;;;24.69;58.23
5753;BME280;2901;42.140;24.760;2023-05-21T08:26:57;99163.06;;;24.68;57.37
5753;BME280;2901;42.140;24.760;2023-05-21T08:29:23;99165.72;;;24.93;57.29
5753;BME280;2901;42.140;24.760;2023-05-21T08:31:48;99164.88;;;25.05;54.70
5753;BME280;2901;42.140;24.760;2023-05-21T08:34:14;99162.03;;;25.32;53.93
5753;BME280;2901;42.140;24.760;2023-05-21T08:36:39;99165.13;;;25.62;51.83
5753;BME280;2901;42.140;24.760;2023-05-21T08:39:07;99164.69;;;25.68;50.72
5753;BME280;2901;42.140;24.760;2023-05-21T08:41:34;99169.38;;;25.65;49.53
5753;BME280;2901;42.140;24.760;2023-05-21T08:44:00;99163.78;;;25.44;50.31
5753;BME280;2901;42.140;24.760;2023-05-21T08:46:31;99168.88;;;25.47;50.27
5753;BME280;2901;42.140;24.760;2023-05-21T08:48:58;99168.16;;;25.45;50.42
5753;BME280;2901;42.140;24.760;2023-05-21T08:51:23;99167.56;;;25.16;49.52
5753;BME280;2901;42.140;24.760;2023-05-21T08:53:49;99144.28;;;25.09;50.20
5753;BME280;2901;42.140;24.760;2023-05-21T08:56:18;99146.75;;;24.99;51.58
5753;BME280;2901;42.140;24.760;2023-05-21T08:58:45;99145.81;;;24.88;50.12
5753;BME280;2901;42.140;24.760;2023-05-21T09:01:11;99155.75;;;24.97;50.94
5753;BME280;2901;42.140;24.760;2023-05-21T09:03:38;99147.03;;;25.07;48.39
5753;BME280;2901;42.140;24.760;2023-05-21T09:06:05;99146.72;;;25.12;45.74
5753;BME280;2901;42.140;24.760;2023-05-21T09:08:37;99144.56;;;25.17;46.38
5753;BME280;2901;42.140;24.760;2023-05-21T09:11:07;99143.13;;;25.37;45.32
5753;BME280;2901;42.140;24.760;2023-05-21T09:13:33;99144.38;;;25.56;44.56
5753;BME280;2901;42.140;24.760;2023-05-21T09:15:59;99154.88;;;25.58;44.49
5753;BME280;2901;42.140;24.760;2023-05-21T09:18:25;99135.47;;;25.57;44.86
5753;BME280;2901;42.140;24.760;2023-05-21T09:20:51;99145.97;;;25.46;44.57
5753;BME280;2901;42.140;24.760;2023-05-21T09:23:18;99153.91;;;25.46;45.91
5753;BME280;2901;42.140;24.760;2023-05-21T09:25:45;99139.94;;;25.44;46.39
5753;BME280;2901;42.140;24.760;2023-05-21T09:28:12;99147.19;;;25.29;44.83
5753;BME280;2901;42.140;24.760;2023-05-21T09:30:45;99151.63;;;25.05;45.24
5753;BME280;2901;42.140;24.760;2023-05-21T09:33:10;99150.22;;;25.00;46.67
5753;BME280;2901;42.140;24.760;2023-05-21T09:35:36;99150.63;;;25.06;45.74
5753;BME280;2901;42.140;24.760;2023-05-21T09:38:07;99153.38;;;25.17;45.63
5753;BME280;2901;42.140;24.760;2023-05-21T09:40:33;99153.91;;;25.22;43.72
5753;BME280;2901;42.140;24.760;2023-05-21T09:42:59;99154.44;;;25.15;44.79
5753;BME280;2901;42.140;24.760;2023-05-21T09:45:26;99151.66;;;25.16;44.47
5753;BME280;2901;42.140;24.760;2023-05-21T09:47:52;99154.44;;;25.15;44.87
5753;BME280;2901;42.140;24.760;2023-05-21T09:50:20;99154.94;;;25.20;46.19
5753;BME280;2901;42.140;24.760;2023-05-21T09:52:47;99156.75;;;25.32;44.66
5753;BME280;2901;42.140;24.760;2023-05-21T09:55:15;99156.97;;;25.29;40.78
5753;BME280;2901;42.140;24.760;2023-05-21T09:57:45;99149.75;;;25.31;43.41
5753;BME280;2901;42.140;24.760;2023-05-21T10:00:20;99154.31;;;25.29;41.19
5753;BME280;2901;42.140;24.760;2023-05-21T10:02:53;99154.03;;;25.45;41.43
5753;BME280;2901;42.140;24.760;2023-05-21T10:05:19;99153.69;;;25.62;42.30
5753;BME280;2901;42.140;24.760;2023-05-21T10:07:49;99156.22;;;25.63;43.63
5753;BME280;2901;42.140;24.760;2023-05-21T10:10:19;99158.78;;;25.65;44.79
5753;BME280;2901;42.140;24.760;2023-05-21T10:12:47;99162.63;;;25.48;45.85
5753;BME280;2901;42.140;24.760;2023-05-21T10:15:18;99160.38;;;25.18;46.57
5753;BME280;2901;42.140;24.760;2023-05-21T10:17:47;99142.84;;;24.79;48.59
5753;BME280;2901;42.140;24.760;2023-05-21T10:20:13;99153.53;;;24.65;51.20
5753;BME280;2901;42.140;24.760;2023-05-21T10:22:39;99147.16;;;24.55;49.89
5753;BME280;2901;42.140;24.760;2023-05-21T10:25:07;99151.63;;;24.42;50.47
5753;BME280;2901;42.140;24.760;2023-05-21T10:27:34;99147.25;;;24.41;50.06
5753;BME280;2901;42.140;24.760;2023-05-21T10:30:00;99151.28;;;24.34;48.72
5753;BME280;2901;42.140;24.760;2023-05-21T10:32:26;99155.13;;;24.55;48.96
5753;BME280;2901;42.140;24.760;2023-05-21T10:34:56;99154.91;;;24.71;47.44
5753;BME280;2901;42.140;24.760;2023-05-21T10:37:25;99155.31;;;25.03;47.54
5753;BME280;2901;42.140;24.760;2023-05-21T10:39:52;99158.72;;;25.41;47.07
5753;BME280;2901;42.140;24.760;2023-05-21T10:42:23;99163.03;;;25.78;46.63
5753;BME280;2901;42.140;24.760;2023-05-21T10:52:51;99165.72;;;26.37;38.81
5753;BME280;2901;42.140;24.760;2023-05-21T10:55:32;99159.72;;;26.57;38.40
5753;BME280;2901;42.140;24.760;2023-05-21T11:00:46;99163.28;;;26.34;42.75
5753;BME280;2901;42.140;24.760;2023-05-21T11:03:12;99162.06;;;26.27;42.57
5753;BME280;2901;42.140;24.760;2023-05-21T11:06:01;99157.75;;;26.37;42.80
5753;BME280;2901;42.140;24.760;2023-05-21T11:08:27;99160.88;;;26.31;42.53
5753;BME280;2901;42.140;24.760;2023-05-21T11:10:58;99159.75;;;26.22;43.25
5753;BME280;2901;42.140;24.760;2023-05-21T11:13:25;99146.06;;;26.16;43.54
5753;BME280;2901;42.140;24.760;2023-05-21T11:21:14;99152.63;;;25.64;46.79
5753;BME280;2901;42.140;24.760;2023-05-21T11:24:00;99153.56;;;25.63;47.30
5753;BME280;2901;42.140;24.760;2023-05-21T11:26:28;99145.06;;;25.35;48.45
5753;BME280;2901;42.140;24.760;2023-05-21T11:31:29;99138.56;;;25.15;50.09
5753;BME280;2901;42.140;24.760;2023-05-21T11:34:14;99139.06;;;25.20;50.04
5753;BME280;2901;42.140;24.760;2023-05-21T11:36:41;99139.22;;;25.06;49.52
5753;BME280;2901;42.140;24.760;2023-05-21T11:39:18;99144.50;;;25.06;50.23
5753;BME280;2901;42.140;24.760;2023-05-21T11:44:15;99133.09;;;24.93;51.28
5753;BME280;2901;42.140;24.760;2023-05-21T11:46:45;99132.06;;;24.83;51.65
5753;BME280;2901;42.140;24.760;2023-05-21T11:49:11;99138.69;;;24.75;52.73
5753;BME280;2901;42.140;24.760;2023-05-21T11:51:36;99126.69;;;24.70;52.97
5753;BME280;2901;42.140;24.760;2023-05-21T11:54:02;99133.06;;;24.67;53.44
5753;BME280;2901;42.140;24.760;2023-05-21T11:56:28;99129.16;;;24.60;53.99
5753;BME280;2901;42.140;24.760;2023-05-21T11:58:56;99129.50;;;24.56;54.85
5753;BME280;2901;42.140;24.760;2023-05-21T12:01:22;99121.00;;;24.38;55.63
5753;BME280;2901;42.140;24.760;2023-05-21T12:03:47;99123.56;;;24.40;56.10
5753;BME280;2901;42.140;24.760;2023-05-21T12:06:13;99113.91;;;24.26;55.78
5753;BME280;2901;42.140;24.760;2023-05-21T12:08:38;99117.75;;;24.08;55.57
5753;BME280;2901;42.140;24.760;2023-05-21T12:11:04;99113.81;;;23.88;56.43
5753;BME280;2901;42.140;24.760;2023-05-21T12:13:29;99114.72;;;23.74;57.00
5753;BME280;2901;42.140;24.760;2023-05-21T12:15:56;99113.47;;;23.67;57.91
5753;BME280;2901;42.140;24.760;2023-05-21T12:18:21;99109.53;;;23.60;58.23
5753;BME280;2901;42.140;24.760;2023-05-21T12:20:46;99100.94;;;23.57;57.93
5753;BME280;2901;42.140;24.760;2023-05-21T12:23:38;99094.66;;;23.45;58.21
5753;BME280;2901;42.140;24.760;2023-05-21T12:26:03;99112.88;;;23.50;58.72
5753;BME280;2901;42.140;24.760;2023-05-21T12:28:29;99114.56;;;23.51;58.25
5753;BME280;2901;42.140;24.760;2023-05-21T12:30:55;99108.22;;;23.53;59.45
5753;BME280;2901;42.140;24.760;2023-05-21T12:33:21;99100.50;;;23.50;61.33
5753;BME280;2901;42.140;24.760;2023-05-21T12:35:49;99105.47;;;23.55;61.09
5753;BME280;2901;42.140;24.760;2023-05-21T12:38:16;99106.03;;;23.60;60.48
5753;BME280;2901;42.140;24.760;2023-05-21T12:40:41;99096.00;;;23.65;58.93
5753;BME280;2901;42.140;24.760;2023-05-21T12:43:09;99105.34;;;23.83;59.82
5753;BME280;2901;42.140;24.760;2023-05-21T12:45:36;99100.53;;;24.02;59.19
5753;BME280;2901;42.140;24.760;2023-05-21T12:48:03;99095.81;;;24.20;58.54
5753;BME280;2901;42.140;24.760;2023-05-21T12:50:29;99109.56;;;24.38;57.67
5753;BME280;2901;42.140;24.760;2023-05-21T12:52:55;99105.09;;;24.63;54.95
5753;BME280;2901;42.140;24.760;2023-05-21T12:55:25;99099.69;;;24.90;54.75
5753;BME280;2901;42.140;24.760;2023-05-21T12:57:59;99103.78;;;25.07;52.01
5753;BME280;2901;42.140;24.760;2023-05-21T13:00:25;99103.66;;;25.21;51.28
5753;BME280;2901;42.140;24.760;2023-05-21T13:02:50;99099.28;;;25.20;52.43
5753;BME280;2901;42.140;24.760;2023-05-21T13:05:17;99094.16;;;25.42;50.16
5753;BME280;2901;42.140;24.760;2023-05-21T13:07:44;99103.34;;;25.73;46.51
5753;BME280;2901;42.140;24.760;2023-05-21T13:10:11;99102.59;;;25.95;44.26
5753;BME280;2901;42.140;24.760;2023-05-21T13:12:37;99099.78;;;26.20;43.67
5753;BME280;2901;42.140;24.760;2023-05-21T13:15:03;99095.44;;;26.41;44.02
5753;BME280;2901;42.140;24.760;2023-05-21T13:17:30;99093.53;;;26.65;43.31
5753;BME280;2901;42.140;24.760;2023-05-21T13:20:08;99090.66;;;26.79;42.44
5753;BME280;2901;42.140;24.760;2023-05-21T13:22:37;99093.56;;;26.99;40.66
5753;BME280;2901;42.140;24.760;2023-05-21T13:25:06;99093.31;;;27.13;39.47
5753;BME280;2901;42.140;24.760;2023-05-21T13:27:31;99090.69;;;27.33;40.99